Time;durP1;ratioP1;P1;durP2;ratioP2;P2;SDS_P1;SDS_P2;PMS_P1;PMS_P2;Temp;Humidity;BMP_temperature;BMP_pressure;BME280_temperature;BME280_humidity;BME280_pressure;Samples;Min_cycle;Max_cycle;Signal;HPM_P1;HPM_P2
2022/03/04 00:00:50;;;;;;;17.27;15.37;;;;;;;0.80;80.73;100394.00;5025900;28;20621;-53
2022/03/04 00:03:16;;;;;;;16.87;14.90;;;;;;;0.75;81.22;100400.63;5028507;28;20652;-53
2022/03/04 00:05:41;;;;;;;21.67;16.17;;;;;;;0.71;81.38;100407.28;5024492;28;20588;-55
2022/03/04 00:08:08;;;;;;;18.80;16.00;;;;;;;0.73;81.58;100415.88;5025239;28;20207;-55
2022/03/04 00:10:34;;;;;;;18.23;15.57;;;;;;;0.70;80.97;100408.13;5026263;28;20190;-54
2022/03/04 00:12:59;;;;;;;17.70;14.80;;;;;;;0.67;81.06;100409.69;5027188;28;20191;-53
2022/03/04 00:15:25;;;;;;;18.13;14.67;;;;;;;0.65;81.77;100414.72;5009468;28;20585;-54
2022/03/04 00:17:50;;;;;;;17.47;15.37;;;;;;;0.67;81.29;100417.34;5011027;28;20219;-53
2022/03/04 00:20:16;;;;;;;17.27;15.47;;;;;;;0.67;80.51;100420.75;5027543;28;20192;-53
2022/03/04 00:22:42;;;;;;;16.90;14.90;;;;;;;0.71;79.73;100417.50;5026820;28;20635;-55
2022/03/04 00:25:08;;;;;;;18.27;15.03;;;;;;;0.76;79.28;100415.94;5023035;28;20252;-55
2022/03/04 00:27:33;;;;;;;19.37;16.07;;;;;;;0.74;79.26;100415.06;5022636;28;20218;-55
2022/03/04 00:29:59;;;;;;;17.47;14.83;;;;;;;0.72;79.61;100423.44;5024284;28;20188;-54
2022/03/04 00:32:24;;;;;;;19.83;16.13;;;;;;;0.73;80.04;100417.53;5022029;28;20674;-54
2022/03/04 00:34:50;;;;;;;17.80;14.80;;;;;;;0.73;80.23;100414.97;5023256;28;20210;-55
2022/03/04 00:37:16;;;;;;;20.10;15.90;;;;;;;0.72;80.47;100413.25;5024914;28;20194;-55
2022/03/04 00:39:41;;;;;;;17.87;14.77;;;;;;;0.67;80.74;100417.34;5024488;28;20194;-55
2022/03/04 00:42:07;;;;;;;19.13;15.30;;;;;;;0.61;80.54;100412.88;5026499;28;20637;-55
2022/03/04 00:44:32;;;;;;;18.90;15.43;;;;;;;0.58;80.97;100416.19;5007796;28;20281;-55
2022/03/04 00:46:57;;;;;;;18.67;15.10;;;;;;;0.50;81.44;100407.44;5026315;28;20225;-55
2022/03/04 00:49:23;;;;;;;17.97;15.57;;;;;;;0.46;82.18;100410.69;5023040;28;20191;-55
2022/03/04 00:51:48;;;;;;;20.90;16.53;;;;;;;0.42;82.77;100411.41;5027112;28;20587;-55
2022/03/04 00:54:14;;;;;;;19.23;16.57;;;;;;;0.37;83.22;100418.88;5024013;28;20264;-54
2022/03/04 00:56:39;;;;;;;21.57;16.77;;;;;;;0.37;82.94;100406.16;5027008;28;20281;-54
2022/03/04 00:59:04;;;;;;;21.17;15.53;;;;;;;0.34;82.52;100411.13;5027711;28;20267;-54
2022/03/04 01:01:30;;;;;;;18.53;15.40;;;;;;;0.35;82.33;100414.56;5025571;28;20286;-54
2022/03/04 01:03:55;;;;;;;17.00;15.07;;;;;;;0.29;82.73;100416.06;5027913;28;20664;-54
2022/03/04 01:06:21;;;;;;;20.03;16.43;;;;;;;0.32;82.61;100411.91;5023810;28;20203;-54
2022/03/04 01:08:46;;;;;;;18.33;15.97;;;;;;;0.29;82.63;100405.88;5026715;28;20230;-54
2022/03/04 01:11:12;;;;;;;19.27;15.53;;;;;;;0.22;83.09;100408.16;5008590;28;20354;-54
2022/03/04 01:13:37;;;;;;;17.93;15.60;;;;;;;0.21;83.60;100409.88;5029921;28;20236;-54
2022/03/04 01:16:03;;;;;;;18.63;15.57;;;;;;;0.18;84.23;100403.78;5028024;28;20215;-53
2022/03/04 01:18:28;;;;;;;17.87;15.23;;;;;;;0.18;84.37;100404.66;5024999;28;20668;-55
2022/03/04 01:20:54;;;;;;;18.93;15.90;;;;;;;0.20;84.22;100404.69;5025410;28;20850;-54
2022/03/04 01:23:19;;;;;;;18.80;15.53;;;;;;;0.20;84.19;100407.25;5025019;28;20209;-56
2022/03/04 01:25:44;;;;;;;16.70;14.90;;;;;;;0.21;84.26;100401.34;5026614;28;20225;-55
2022/03/04 01:28:10;;;;;;;20.57;15.47;;;;;;;0.19;84.49;100398.75;5023246;28;20717;-54
2022/03/04 01:30:35;;;;;;;19.33;15.93;;;;;;;0.21;85.45;100396.25;5023754;28;20192;-53
2022/03/04 01:33:01;;;;;;;18.73;16.27;;;;;;;0.20;85.84;100399.59;5027144;28;20205;-55
2022/03/04 01:35:26;;;;;;;17.97;14.83;;;;;;;0.19;84.96;100387.69;5024340;28;20209;-52
2022/03/04 01:37:52;;;;;;;17.03;14.90;;;;;;;0.14;84.87;100396.06;5023032;28;20196;-53
2022/03/04 01:40:17;;;;;;;16.23;14.50;;;;;;;0.11;84.84;100388.31;5024121;28;20222;-54
2022/03/04 01:42:43;;;;;;;17.80;14.90;;;;;;;0.06;85.78;100394.06;5024450;28;20205;-55
2022/03/04 01:45:10;;;;;;;19.40;14.87;;;;;;;0.02;86.37;100387.97;5020448;28;20639;-52
2022/03/04 01:47:41;;;;;;;17.10;14.77;;;;;;;0.01;86.77;100386.22;5008907;28;20203;-55
2022/03/04 01:50:08;;;;;;;16.87;14.50;;;;;;;0.02;86.59;100376.94;5024081;28;20188;-55
2022/03/04 01:52:33;;;;;;;17.97;15.40;;;;;;;0.02;86.81;100376.94;5025197;28;20276;-54
2022/03/04 01:54:59;;;;;;;17.47;14.60;;;;;;;0.03;85.82;100373.56;5023747;28;20679;-54
2022/03/04 01:57:24;;;;;;;16.80;14.60;;;;;;;0.06;86.45;100369.44;5026316;28;20201;-53
2022/03/04 01:59:50;;;;;;;19.80;14.97;;;;;;;0.05;85.79;100370.25;5027037;28;20249;-53
2022/03/04 02:02:15;;;;;;;19.23;15.70;;;;;;;0.05;86.44;100375.34;5022912;28;20555;-55
2022/03/04 02:04:42;;;;;;;18.93;15.67;;;;;;;0.00;86.97;100371.81;5025590;28;20259;-56
2022/03/04 02:07:08;;;;;;;18.57;15.40;;;;;;;0.03;86.94;100371.03;5024022;28;20205;-53
2022/03/04 02:09:33;;;;;;;18.60;14.67;;;;;;;0.04;85.87;100371.06;5023806;28;20246;-56
2022/03/04 02:12:00;;;;;;;16.97;14.00;;;;;;;0.03;85.46;100371.88;5020892;28;20252;-53
2022/03/04 02:14:28;;;;;;;17.83;14.27;;;;;;;0.02;85.07;100377.78;5023849;28;20208;-55
2022/03/04 02:16:54;;;;;;;17.23;14.00;;;;;;;0.06;84.75;100376.25;5027658;28;20186;-55
2022/03/04 02:19:21;;;;;;;17.63;14.17;;;;;;;0.03;84.65;100383.75;5005941;28;20286;-55
2022/03/04 02:21:51;;;;;;;16.47;14.20;;;;;;;0.02;84.33;100372.69;5024086;28;20186;-54
2022/03/04 02:24:17;;;;;;;17.30;14.97;;;;;;;0.05;84.24;100369.41;5018214;28;20225;-56
2022/03/04 02:26:43;;;;;;;18.00;14.97;;;;;;;0.05;84.15;100379.59;5017014;28;20539;-55
2022/03/04 02:29:09;;;;;;;17.80;13.50;;;;;;;0.02;84.59;100377.78;5021875;28;20220;-54
2022/03/04 02:31:34;;;;;;;14.53;12.87;;;;;;;0.01;84.43;100380.28;5025080;28;20231;-55
2022/03/04 02:33:59;;;;;;;17.03;14.00;;;;;;;0.01;84.72;100380.28;5025436;28;20320;-54
2022/03/04 02:36:25;;;;;;;17.93;13.90;;;;;;;-0.02;84.71;100381.91;5022169;28;20288;-53
2022/03/04 02:38:50;;;;;;;16.17;13.63;;;;;;;-0.04;84.43;100385.22;5024698;28;20275;-54
2022/03/04 02:41:16;;;;;;;17.50;14.63;;;;;;;-0.08;84.58;100388.47;5024533;28;20190;-53
2022/03/04 02:43:41;;;;;;;16.37;14.17;;;;;;;-0.13;85.21;100390.84;5023175;28;20295;-55
2022/03/04 02:46:06;;;;;;;15.23;13.53;;;;;;;-0.11;85.23;100389.22;5026213;28;20190;-54
2022/03/04 02:48:32;;;;;;;15.50;13.37;;;;;;;-0.13;85.18;100395.03;5019982;28;20206;-54
2022/03/04 02:50:57;;;;;;;16.87;13.57;;;;;;;-0.12;85.13;100396.78;5021881;28;20191;-55
2022/03/04 02:53:22;;;;;;;17.13;14.03;;;;;;;-0.09;84.71;100395.22;5024465;28;20192;-55
2022/03/04 02:55:48;;;;;;;16.60;14.17;;;;;;;-0.06;85.02;100397.88;5025898;28;20210;-54
2022/03/04 02:58:13;;;;;;;15.10;13.50;;;;;;;-0.05;84.70;100401.28;5023315;28;20857;-54
2022/03/04 03:00:39;;;;;;;19.63;14.17;;;;;;;-0.07;85.09;100403.75;5022526;28;20217;-55
2022/03/04 03:03:05;;;;;;;16.03;13.57;;;;;;;-0.07;84.54;100400.38;5023080;28;20188;-54
2022/03/04 03:05:30;;;;;;;18.47;14.30;;;;;;;-0.06;84.40;100389.38;5023537;28;20222;-55
2022/03/04 03:07:55;;;;;;;16.00;13.97;;;;;;;-0.07;84.62;100397.81;5007763;28;20216;-55
2022/03/04 03:10:21;;;;;;;19.83;14.97;;;;;;;-0.09;84.50;100392.69;5019980;28;20274;-55
2022/03/04 03:12:46;;;;;;;16.53;14.47;;;;;;;-0.07;84.47;100400.38;5022823;28;20190;-56
2022/03/04 03:15:12;;;;;;;17.33;14.83;;;;;;;-0.09;84.18;100391.81;5022187;28;20222;-55
2022/03/04 03:17:38;;;;;;;17.13;14.27;;;;;;;-0.09;83.45;100391.81;5022935;28;20208;-54
2022/03/04 03:20:05;;;;;;;19.83;15.00;;;;;;;-0.06;84.16;100389.38;5025067;28;20214;-54
2022/03/04 03:22:30;;;;;;;16.43;14.07;;;;;;;-0.13;84.24;100393.38;5025248;28;20215;-54
2022/03/04 03:24:56;;;;;;;16.87;13.93;;;;;;;-0.16;84.05;100394.16;5022502;28;20779;-55
2022/03/04 03:27:21;;;;;;;17.27;13.90;;;;;;;-0.16;83.70;100401.78;5025502;28;20535;-56
2022/03/04 03:29:47;;;;;;;14.77;12.97;;;;;;;-0.12;82.37;100396.78;5022325;28;20190;-53
2022/03/04 03:32:13;;;;;;;16.80;14.67;;;;;;;-0.09;82.98;100392.69;5006099;28;20182;-55
2022/03/04 03:34:39;;;;;;;17.93;13.53;;;;;;;-0.14;83.48;100399.28;5007475;28;20228;-55
2022/03/04 03:37:06;;;;;;;16.70;13.67;;;;;;;-0.14;83.00;100395.84;5025116;28;20199;-54
2022/03/04 03:39:31;;;;;;;16.63;14.10;;;;;;;-0.14;82.85;100399.28;5023568;28;20224;-54
2022/03/04 03:41:56;;;;;;;16.27;14.23;;;;;;;-0.14;83.05;100400.94;5029354;28;20657;-53
2022/03/04 03:44:22;;;;;;;15.83;13.33;;;;;;;-0.18;82.62;100408.50;5014566;28;20630;-54
2022/03/04 03:46:47;;;;;;;16.07;13.47;;;;;;;-0.17;82.31;100404.25;5031018;28;20189;-55
2022/03/04 03:49:13;;;;;;;15.73;13.93;;;;;;;-0.11;83.19;100398.50;5030881;28;20186;-55
2022/03/04 03:51:38;;;;;;;16.63;14.00;;;;;;;-0.10;85.69;100397.72;5024609;28;20195;-54
2022/03/04 03:54:03;;;;;;;15.90;13.73;;;;;;;-0.12;85.60;100392.56;5029625;28;20217;-54
2022/03/04 03:56:29;;;;;;;17.97;14.03;;;;;;;-0.10;85.31;100405.34;5028493;28;20183;-54
2022/03/04 03:58:54;;;;;;;19.47;14.90;;;;;;;-0.12;85.72;100395.13;5031318;28;20195;-54
2022/03/04 04:01:20;;;;;;;17.37;14.30;;;;;;;-0.13;85.57;100389.97;5030763;28;20207;-54
2022/03/04 04:03:45;;;;;;;17.47;14.13;;;;;;;-0.17;85.67;100387.31;5025274;28;20296;-54
2022/03/04 04:06:10;;;;;;;18.57;15.17;;;;;;;-0.21;85.86;100395.66;5030611;28;20204;-54
2022/03/04 04:08:36;;;;;;;17.30;14.97;;;;;;;-0.25;85.89;100387.84;5024880;28;20186;-54
2022/03/04 04:11:01;;;;;;;18.80;14.73;;;;;;;-0.33;86.22;100392.66;5029460;28;20186;-54
2022/03/04 04:13:30;;;;;;;17.90;15.00;;;;;;;-0.39;86.50;100402.59;5024517;28;20659;-55
2022/03/04 04:15:55;;;;;;;17.67;14.97;;;;;;;-0.46;86.65;100404.03;5029244;28;20227;-54
2022/03/04 04:18:20;;;;;;;18.43;14.70;;;;;;;-0.45;86.75;100399.84;5030015;28;20281;-54
2022/03/04 04:20:46;;;;;;;17.77;14.73;;;;;;;-0.49;86.52;100402.25;5029680;28;20530;-54
2022/03/04 04:23:11;;;;;;;17.93;15.27;;;;;;;-0.48;86.47;100398.91;5031269;28;20195;-55
2022/03/04 04:25:36;;;;;;;19.37;16.13;;;;;;;-0.48;86.73;100398.91;5029384;28;20212;-55
2022/03/04 04:28:02;;;;;;;19.73;15.60;;;;;;;-0.51;86.67;100408.06;5029961;28;20271;-53
2022/03/04 04:30:29;;;;;;;22.13;16.90;;;;;;;-0.55;86.31;100409.63;5027829;28;20190;-55
2022/03/04 04:32:55;;;;;;;18.20;15.20;;;;;;;-0.60;87.06;100416.22;5027016;28;20677;-54
2022/03/04 04:35:20;;;;;;;20.63;15.87;;;;;;;-0.62;87.44;100420.41;5024224;28;20212;-53
2022/03/04 04:37:45;;;;;;;22.37;16.17;;;;;;;-0.66;87.72;100413.44;5026592;28;20324;-55
2022/03/04 04:40:11;;;;;;;17.40;14.53;;;;;;;-0.75;87.83;100408.88;5022035;28;20246;-55
2022/03/04 04:42:36;;;;;;;17.90;14.97;;;;;;;-0.78;88.34;100421.47;5023731;28;20190;-53
2022/03/04 04:45:02;;;;;;;16.30;14.50;;;;;;;-0.79;88.36;100417.19;5027664;28;20698;-54
2022/03/04 04:47:28;;;;;;;17.43;15.50;;;;;;;-0.80;88.44;100420.53;5009449;28;20605;-55
2022/03/04 04:49:53;;;;;;;18.10;15.30;;;;;;;-0.83;88.78;100417.88;5027678;28;20188;-54
2022/03/04 04:52:19;;;;;;;20.77;15.90;;;;;;;-0.90;88.93;100419.28;5025207;28;20202;-53
2022/03/04 04:54:44;;;;;;;21.13;17.27;;;;;;;-0.93;89.17;100434.44;5025678;28;20295;-54
2022/03/04 04:57:09;;;;;;;18.87;16.53;;;;;;;-0.99;89.79;100432.53;5026114;28;20228;-55
2022/03/04 04:59:35;;;;;;;19.30;16.10;;;;;;;-0.97;89.34;100427.50;5025795;28;20200;-53
2022/03/04 05:02:01;;;;;;;20.10;17.03;;;;;;;-0.99;89.79;100440.16;5030431;28;20250;-52
2022/03/04 05:04:26;;;;;;;21.40;16.77;;;;;;;-1.03;89.91;100433.19;5025637;28;20312;-52
2022/03/04 05:06:52;;;;;;;19.53;16.13;;;;;;;-1.06;90.38;100437.28;5027324;28;20198;-55
2022/03/04 05:09:19;;;;;;;21.50;17.33;;;;;;;-1.11;90.53;100437.09;5011709;28;20184;-53
2022/03/04 05:11:44;;;;;;;21.37;17.80;;;;;;;-1.16;90.60;100441.97;5030534;28;20196;-53
2022/03/04 05:14:10;;;;;;;19.53;16.90;;;;;;;-1.21;91.00;100440.06;5027716;28;20201;-56
2022/03/04 05:16:35;;;;;;;22.33;17.23;;;;;;;-1.19;90.90;100438.44;5026532;28;20262;-54
2022/03/04 05:19:01;;;;;;;21.23;17.33;;;;;;;-1.19;90.95;100444.38;5028401;28;20187;-55
2022/03/04 05:21:27;;;;;;;21.10;16.67;;;;;;;-1.17;90.99;100445.31;5025872;28;20282;-54
2022/03/04 05:24:01;;;;;;;21.40;16.17;;;;;;;-1.21;91.78;100453.59;5024250;28;20687;-54
2022/03/04 05:26:27;;;;;;;25.00;17.43;;;;;;;-1.19;91.54;100459.63;5030480;28;20223;-55
2022/03/04 05:28:53;;;;;;;20.87;16.60;;;;;;;-1.18;90.97;100457.97;5029253;28;20266;-55
2022/03/04 05:31:18;;;;;;;20.90;16.60;;;;;;;-1.18;90.45;100458.81;5029989;28;20192;-54
2022/03/04 05:33:43;;;;;;;19.17;16.03;;;;;;;-1.17;90.22;100469.88;5026190;28;20223;-54
2022/03/04 05:36:10;;;;;;;20.37;16.73;;;;;;;-1.20;89.99;100468.03;5028561;28;20192;-54
2022/03/04 05:38:35;;;;;;;23.00;16.93;;;;;;;-1.24;90.12;100461.97;5024805;28;20197;-55
2022/03/04 05:41:01;;;;;;;20.70;16.53;;;;;;;-1.26;90.31;100477.97;5030659;28;20234;-53
2022/03/04 05:43:26;;;;;;;19.57;15.47;;;;;;;-1.27;90.34;100469.47;5015219;28;20180;-55
2022/03/04 05:45:52;;;;;;;19.23;16.23;;;;;;;-1.27;90.52;100474.53;5029387;28;20326;-55
2022/03/04 05:48:17;;;;;;;18.53;16.37;;;;;;;-1.24;90.17;100476.38;5028467;28;20191;-53
2022/03/04 05:50:43;;;;;;;21.20;16.80;;;;;;;-1.20;89.79;100482.44;5027216;28;20276;-55
2022/03/04 05:53:09;;;;;;;18.97;15.70;;;;;;;-1.19;89.89;100485.03;5030133;28;20207;-55
2022/03/04 05:55:34;;;;;;;19.93;16.47;;;;;;;-1.19;89.45;100489.25;5026045;28;20215;-55
2022/03/04 05:58:00;;;;;;;19.37;15.67;;;;;;;-1.23;90.07;100483.19;5026730;28;20661;-55
2022/03/04 06:00:26;;;;;;;22.30;18.10;;;;;;;-1.26;90.58;100483.91;5026911;28;20200;-54
2022/03/04 06:02:52;;;;;;;21.60;17.97;;;;;;;-1.27;91.14;100477.09;5026862;28;20280;-54
2022/03/04 06:05:17;;;;;;;22.13;17.77;;;;;;;-1.30;91.83;100494.75;5029447;28;20220;-54
2022/03/04 06:07:42;;;;;;;21.73;17.20;;;;;;;-1.26;91.60;100483.03;5026399;28;20708;-54
2022/03/04 06:10:08;;;;;;;23.23;17.53;;;;;;;-1.24;91.80;100489.06;5029838;28;20214;-54
2022/03/04 06:12:34;;;;;;;22.07;18.10;;;;;;;-1.23;91.59;100506.03;5028086;28;20183;-54
2022/03/04 06:14:59;;;;;;;20.50;17.50;;;;;;;-1.18;90.87;100491.84;5027586;28;20673;-55
2022/03/04 06:17:24;;;;;;;21.70;18.00;;;;;;;-1.15;90.45;100497.06;5011334;28;20542;-53
2022/03/04 06:19:50;;;;;;;24.40;18.57;;;;;;;-1.16;90.29;100502.94;5027950;28;20270;-53
2022/03/04 06:22:18;;;;;;;24.43;17.33;;;;;;;-1.15;90.39;100502.13;5027996;28;20192;-53
2022/03/04 06:24:43;;;;;;;21.20;17.33;;;;;;;-1.14;89.65;100495.41;5024695;28;20690;-56
2022/03/04 06:27:09;;;;;;;18.80;16.60;;;;;;;-1.12;89.49;100514.09;5022965;28;20200;-56
2022/03/04 06:29:43;;;;;;;19.60;16.80;;;;;;;-1.13;89.22;100514.88;5041787;27;20947;-56
2022/03/04 06:32:09;;;;;;;25.30;17.23;;;;;;;-1.10;89.25;100515.91;5029556;28;20276;-55
2022/03/04 06:34:34;;;;;;;23.93;17.50;;;;;;;-1.03;89.36;100514.47;5027914;28;20216;-55
2022/03/04 06:37:00;;;;;;;21.90;16.67;;;;;;;-0.96;89.18;100510.53;5026624;28;20198;-55
2022/03/04 06:39:25;;;;;;;20.07;16.93;;;;;;;-0.84;88.59;100518.66;5029097;28;20213;-55
2022/03/04 06:41:51;;;;;;;20.30;18.10;;;;;;;-0.67;88.33;100516.78;5019539;28;20219;-55
2022/03/04 06:44:16;;;;;;;20.70;17.90;;;;;;;-0.65;88.29;100524.50;5026846;28;20238;-54
2022/03/04 06:46:41;;;;;;;21.47;17.93;;;;;;;-0.54;88.05;100515.59;5027060;28;20562;-55
2022/03/04 06:49:11;;;;;;;20.80;17.37;;;;;;;-0.45;88.03;100517.66;5020505;28;20205;-54
2022/03/04 06:51:38;;;;;;;22.43;18.50;;;;;;;-0.52;87.52;100525.81;5028910;28;20192;-55
2022/03/04 06:54:04;;;;;;;22.87;19.07;;;;;;;-0.49;87.57;100528.50;5053561;28;20258;-54
2022/03/04 06:56:29;;;;;;;21.30;18.30;;;;;;;-0.42;87.64;100525.41;5036633;28;20576;-54
2022/03/04 06:58:54;;;;;;;21.63;17.67;;;;;;;-0.37;87.29;100531.53;5020857;28;20189;-53
2022/03/04 07:01:21;;;;;;;22.30;17.60;;;;;;;-0.32;87.60;100540.22;5022727;28;20200;-56
2022/03/04 07:03:47;;;;;;;23.20;18.23;;;;;;;-0.27;87.20;100537.00;5024402;28;20204;-53
2022/03/04 07:06:12;;;;;;;21.57;17.77;;;;;;;-0.26;86.89;100536.19;5021624;28;20197;-55
2022/03/04 07:08:38;;;;;;;23.17;17.57;;;;;;;-0.25;86.39;100543.00;5015405;28;20292;-55
2022/03/04 07:11:04;;;;;;;22.37;18.10;;;;;;;-0.25;85.58;100555.72;5017031;28;20645;-55
2022/03/04 07:13:30;;;;;;;21.83;17.30;;;;;;;-0.26;86.26;100556.53;5024414;28;20860;-55
2022/03/04 07:15:55;;;;;;;22.67;18.03;;;;;;;-0.24;85.84;100552.38;5031630;28;20220;-54
2022/03/04 07:18:23;;;;;;;24.00;17.77;;;;;;;-0.17;85.36;100549.25;5026674;27;20273;-54
2022/03/04 07:20:49;;;;;;;21.20;16.90;;;;;;;-0.08;85.37;100561.47;5023775;28;20199;-52
2022/03/04 07:23:14;;;;;;;23.30;18.50;;;;;;;-0.06;84.92;100570.03;5018034;28;20246;-56
2022/03/04 07:25:40;;;;;;;21.13;17.30;;;;;;;0.01;84.69;100556.72;5023720;28;20214;-55
2022/03/04 07:28:06;;;;;;;21.03;16.63;;;;;;;0.07;84.74;100563.75;5026614;28;20550;-55
2022/03/04 07:30:31;;;;;;;20.63;17.10;;;;;;;0.13;83.64;100561.41;5025289;28;20226;-55
2022/03/04 07:33:01;;;;;;;26.80;18.13;;;;;;;0.22;84.18;100566.88;5019462;28;20191;-55
2022/03/04 07:35:26;;;;;;;22.50;17.10;;;;;;;0.29;83.41;100568.81;5025151;28;20213;-56
2022/03/04 07:37:52;;;;;;;19.87;16.83;;;;;;;0.37;84.03;100571.66;5023723;28;20236;-54
2022/03/04 07:40:17;;;;;;;21.13;17.67;;;;;;;0.45;83.52;100577.03;5016967;28;20242;-54
2022/03/04 07:42:43;;;;;;;23.53;17.73;;;;;;;0.51;83.35;100571.28;5015302;28;20185;-55
2022/03/04 07:45:10;;;;;;;21.87;17.70;;;;;;;0.57;83.09;100579.16;5007731;28;20246;-54
2022/03/04 07:47:37;;;;;;;22.90;18.10;;;;;;;0.60;82.50;100585.22;5021492;28;20205;-53
2022/03/04 07:50:04;;;;;;;20.00;17.20;;;;;;;0.65;81.94;100579.44;5011995;28;20192;-53
2022/03/04 07:52:31;;;;;;;24.50;17.73;;;;;;;0.70;82.28;100583.00;5006895;28;20224;-53
2022/03/04 07:55:01;;;;;;;23.00;18.63;;;;;;;0.76;82.19;100585.78;5010232;28;20669;-54
2022/03/04 07:57:27;;;;;;;23.27;19.40;;;;;;;0.84;82.21;100591.16;5021465;28;20531;-54
2022/03/04 07:59:53;;;;;;;26.43;21.80;;;;;;;0.93;82.38;100590.59;5004458;28;20185;-53
2022/03/04 08:02:18;;;;;;;28.00;23.73;;;;;;;0.99;81.82;100580.59;5017377;28;20207;-54
2022/03/04 08:04:45;;;;;;;30.47;25.40;;;;;;;1.06;81.37;100585.13;5006923;28;20215;-54
2022/03/04 08:07:10;;;;;;;28.13;25.07;;;;;;;1.12;80.93;100582.78;5013122;28;20189;-55
2022/03/04 08:09:36;;;;;;;39.17;25.83;;;;;;;1.20;81.36;100585.59;5013086;28;20695;-56
2022/03/04 08:12:01;;;;;;;29.73;25.87;;;;;;;1.29;81.36;100585.91;5015265;28;20197;-56
2022/03/04 08:14:27;;;;;;;30.70;24.80;;;;;;;1.39;81.21;100591.31;5006542;28;20279;-52
2022/03/04 08:16:52;;;;;;;46.23;26.10;;;;;;;1.45;80.82;100583.88;5011640;28;20542;-54
2022/03/04 08:19:17;;;;;;;29.43;26.23;;;;;;;1.51;80.59;100587.47;5007338;28;20237;-56
2022/03/04 08:21:45;;;;;;;32.27;28.77;;;;;;;1.61;80.98;100585.22;5018617;28;20185;-55
2022/03/04 08:24:10;;;;;;;37.33;30.30;;;;;;;1.67;80.69;100585.44;5010664;28;20284;-55
2022/03/04 08:26:38;;;;;;;35.37;29.27;;;;;;;1.77;80.66;100590.00;5010378;28;20634;-55
2022/03/04 08:29:07;;;;;;;35.03;29.03;;;;;;;1.87;80.61;100595.41;5014119;28;20298;-54
2022/03/04 08:31:32;;;;;;;36.13;28.47;;;;;;;1.93;79.96;100593.91;5015593;28;20222;-55
2022/03/04 08:33:58;;;;;;;35.60;29.00;;;;;;;2.04;79.60;100589.13;5014982;28;20223;-54
2022/03/04 08:36:24;;;;;;;29.70;26.43;;;;;;;2.18;79.41;100591.25;5003146;28;20220;-55
2022/03/04 08:38:49;;;;;;;32.43;26.87;;;;;;;2.28;78.83;100603.47;5006664;28;20193;-55
2022/03/04 08:41:15;;;;;;;27.83;24.07;;;;;;;2.32;78.44;100602.75;5006534;28;20760;-54
2022/03/04 08:43:40;;;;;;;28.70;24.03;;;;;;;2.39;78.19;100606.34;5013989;28;20185;-55
2022/03/04 08:46:06;;;;;;;27.93;22.90;;;;;;;2.43;77.51;100614.13;5030901;28;20218;-55
2022/03/04 08:48:31;;;;;;;26.20;22.73;;;;;;;2.52;77.25;100600.78;5016634;28;20651;-55
2022/03/04 08:50:57;;;;;;;27.70;22.33;;;;;;;2.64;76.63;100602.81;5009724;28;20201;-54
2022/03/04 08:53:22;;;;;;;27.13;24.20;;;;;;;2.77;77.33;100598.91;5005954;28;20623;-54
2022/03/04 08:55:50;;;;;;;30.67;24.60;;;;;;;2.88;77.50;100602.63;5017727;28;20214;-54
2022/03/04 08:58:15;;;;;;;27.90;23.40;;;;;;;2.95;76.26;100597.69;5007377;28;20185;-54
2022/03/04 09:00:41;;;;;;;29.87;24.07;;;;;;;2.98;76.84;100597.78;5009103;28;20551;-54
2022/03/04 09:03:06;;;;;;;28.07;23.10;;;;;;;3.08;76.76;100606.56;5014628;28;20261;-54
2022/03/04 09:05:32;;;;;;;29.17;23.87;;;;;;;3.22;76.02;100601.78;5011746;28;20215;-54
2022/03/04 09:07:57;;;;;;;24.30;21.13;;;;;;;3.26;76.05;100609.56;5032866;28;20565;-55
2022/03/04 09:10:23;;;;;;;25.60;21.33;;;;;;;3.37;75.71;100609.88;5016147;28;20647;-55
2022/03/04 09:12:48;;;;;;;24.20;20.27;;;;;;;3.46;74.93;100605.00;5020875;28;20195;-54
2022/03/04 09:15:14;;;;;;;30.10;21.70;;;;;;;3.60;75.34;100601.91;5017371;28;20596;-55
2022/03/04 09:17:40;;;;;;;25.27;21.80;;;;;;;3.63;74.71;100602.84;5005223;28;20652;-54
2022/03/04 09:20:06;;;;;;;25.23;22.23;;;;;;;3.75;75.03;100602.28;5008904;28;20334;-53
2022/03/04 09:22:32;;;;;;;27.03;23.57;;;;;;;3.84;73.70;100609.31;5007793;28;20566;-53
2022/03/04 09:24:57;;;;;;;30.93;25.87;;;;;;;3.90;72.70;100609.44;5002244;28;20208;-55
2022/03/04 09:27:23;;;;;;;27.47;23.60;;;;;;;3.93;72.36;100598.44;5006576;28;20188;-53
2022/03/04 09:29:48;;;;;;;27.57;22.53;;;;;;;4.08;72.92;100603.03;5007573;28;20295;-53
2022/03/04 09:32:17;;;;;;;30.47;23.57;;;;;;;4.19;72.41;100605.84;5004214;28;20196;-54
2022/03/04 09:34:42;;;;;;;29.50;24.30;;;;;;;4.23;70.72;100610.22;5003765;28;20203;-53
2022/03/04 09:37:10;;;;;;;30.23;23.60;;;;;;;4.26;70.17;100620.50;5005454;28;20682;-54
2022/03/04 09:39:36;;;;;;;30.23;22.80;;;;;;;4.30;70.28;100606.94;5007367;28;20569;-54
2022/03/04 09:42:01;;;;;;;27.17;21.50;;;;;;;4.31;69.50;100605.25;5022265;28;20279;-54
2022/03/04 09:44:27;;;;;;;25.63;21.40;;;;;;;4.37;69.17;100608.81;5025066;28;20230;-53
2022/03/04 09:46:53;;;;;;;28.60;21.40;;;;;;;4.42;69.90;100608.91;5016797;28;20271;-53
2022/03/04 09:49:18;;;;;;;28.80;22.20;;;;;;;4.52;70.85;100609.97;5008055;28;20565;-54
2022/03/04 09:51:45;;;;;;;29.03;22.97;;;;;;;4.55;68.34;100618.56;5018296;28;20199;-54
2022/03/04 09:54:10;;;;;;;24.33;20.97;;;;;;;4.50;67.97;100617.59;5022337;28;20211;-53
2022/03/04 09:56:36;;;;;;;25.27;20.63;;;;;;;4.55;68.34;100613.44;5016702;28;20190;-54
2022/03/04 09:59:01;;;;;;;24.97;20.93;;;;;;;4.63;69.39;100608.47;5024749;28;20188;-53
2022/03/04 10:01:27;;;;;;;27.30;22.20;;;;;;;4.69;68.84;100595.78;5020481;28;20192;-55
2022/03/04 10:03:54;;;;;;;24.80;21.57;;;;;;;4.72;67.92;100600.13;5023286;28;20217;-54
2022/03/04 10:06:21;;;;;;;26.27;20.33;;;;;;;4.77;67.68;100595.06;5008134;28;20196;-54
2022/03/04 10:08:51;;;;;;;30.63;23.10;;;;;;;4.89;68.28;100595.31;5011046;28;20215;-54
2022/03/04 10:11:28;;;;;;;25.23;21.93;;;;;;;4.91;67.01;100600.47;5011257;28;20736;-55
2022/03/04 10:14:08;;;;;;;26.33;21.30;;;;;;;4.94;67.34;100600.53;5027663;28;20200;-54
2022/03/04 10:16:35;;;;;;;24.67;21.47;;;;;;;4.94;68.13;100592.81;5018727;28;20203;-54
2022/03/04 10:19:18;;;;;;;27.23;21.73;;;;;;;5.06;68.08;100585.38;5017811;28;20188;-55
2022/03/04 10:22:03;;;;;;;26.83;22.30;;;;;;;5.08;67.57;100588.81;5011255;28;20569;-54
2022/03/04 10:24:36;;;;;;;30.27;23.23;;;;;;;5.12;67.39;100593.19;5002923;28;20212;-54
2022/03/04 10:27:12;;;;;;;30.53;23.67;;;;;;;5.21;68.09;100589.06;5008640;28;20199;-55
2022/03/04 10:29:44;;;;;;;34.40;24.73;;;;;;;5.21;66.83;100594.19;5008800;28;20215;-55
2022/03/04 10:32:18;;;;;;;31.23;25.47;;;;;;;5.23;67.05;100589.94;5023622;28;20264;-54
2022/03/04 10:34:43;;;;;;;33.40;26.20;;;;;;;5.29;66.77;100587.47;5009602;28;20219;-54
2022/03/04 10:37:09;;;;;;;30.13;24.77;;;;;;;5.33;67.75;100586.72;5011866;28;20551;-54
2022/03/04 10:39:34;;;;;;;26.77;23.47;;;;;;;5.32;66.37;100590.09;5013449;28;20275;-54
2022/03/04 10:41:59;;;;;;;30.30;23.87;;;;;;;5.32;66.05;100584.97;5010187;28;20200;-53
2022/03/04 10:44:26;;;;;;;32.53;25.60;;;;;;;5.44;66.93;100582.63;5023990;28;20296;-54
2022/03/04 10:46:58;;;;;;;27.70;22.90;;;;;;;5.53;64.86;100583.59;5009078;28;20194;-54
2022/03/04 10:49:25;;;;;;;26.60;22.13;;;;;;;5.51;64.79;100593.84;5014427;28;20224;-54
2022/03/04 10:52:04;;;;;;;27.60;23.73;;;;;;;5.58;65.30;100580.28;5007459;28;20193;-54
2022/03/04 10:54:29;;;;;;;25.07;22.07;;;;;;;5.63;64.58;100578.63;5014122;28;20202;-53
2022/03/04 10:56:55;;;;;;;26.00;23.03;;;;;;;5.65;64.81;100578.69;5006804;28;20520;-53
2022/03/04 10:59:24;;;;;;;26.13;22.53;;;;;;;5.71;64.65;100578.75;5011734;28;20642;-54
2022/03/04 11:01:51;;;;;;;30.47;23.10;;;;;;;5.76;63.43;100589.97;5007928;28;20209;-55
2022/03/04 11:04:18;;;;;;;26.10;22.77;;;;;;;5.82;63.51;100586.63;5005947;28;20214;-55
2022/03/04 11:06:46;;;;;;;25.80;22.67;;;;;;;5.86;63.86;100590.09;5013056;28;20445;-55
2022/03/04 11:09:16;;;;;;;28.30;22.53;;;;;;;5.91;63.51;100578.22;5013315;28;20250;-55